createdAt,value
2023-04-18T00:00:00.666Z,79.09
2023-04-18T00:02:29.696Z,78.60
2023-04-18T00:04:58.073Z,78.11
2023-04-18T00:07:26.378Z,76.88
2023-04-18T00:09:54.498Z,78.11
2023-04-18T00:12:22.633Z,77.47
2023-04-18T00:14:52.232Z,77.44
2023-04-18T00:17:22.374Z,76.77
2023-04-18T00:19:51.909Z,76.56
2023-04-18T00:22:22.686Z,76.79
2023-04-18T00:24:51.157Z,76.72
2023-04-18T00:27:19.947Z,75.35
2023-04-18T00:29:48.755Z,75.57
2023-04-18T00:32:17.832Z,76.14
2023-04-18T00:34:47.538Z,76.54
2023-04-18T00:37:15.713Z,76.48
2023-04-18T00:39:43.835Z,76.90
2023-04-18T00:42:11.933Z,77.07
2023-04-18T00:44:40.054Z,76.75
2023-04-18T00:47:08.111Z,77.04
2023-04-18T00:49:36.370Z,76.38
2023-04-18T00:52:06.061Z,76.47
2023-04-18T00:54:34.137Z,77.67
2023-04-18T00:57:02.834Z,77.35
2023-04-18T00:59:31.238Z,77.30
2023-04-18T01:01:59.419Z,76.98
2023-04-18T01:04:27.717Z,76.63
2023-04-18T01:06:56.860Z,76.29
2023-04-18T01:09:26.834Z,76.59
2023-04-18T01:12:01.895Z,76.90
2023-04-18T01:14:30.055Z,77.94
2023-04-18T01:16:58.859Z,77.08
2023-04-18T01:19:26.965Z,77.54
2023-04-18T01:21:55.234Z,77.37
2023-04-18T01:24:26.851Z,77.15
2023-04-18T01:26:54.851Z,77.09
2023-04-18T01:29:23.053Z,77.38
2023-04-18T01:31:51.163Z,77.76
2023-04-18T01:34:19.414Z,77.78
2023-04-18T01:36:47.810Z,77.09
2023-04-18T01:39:16.044Z,77.13
2023-04-18T01:41:45.621Z,77.43
2023-04-18T01:44:13.957Z,78.03
2023-04-18T01:46:42.375Z,78.32
2023-04-18T01:49:10.687Z,77.88
2023-04-18T01:51:39.971Z,78.25
2023-04-18T01:54:08.115Z,77.90
2023-04-18T01:56:36.494Z,77.50
2023-04-18T01:59:05.976Z,77.41
2023-04-18T02:01:34.105Z,77.20
2023-04-18T02:04:02.285Z,76.78
2023-04-18T02:06:31.000Z,76.03
2023-04-18T02:09:01.096Z,75.90
2023-04-18T02:11:29.265Z,76.25
2023-04-18T02:13:57.674Z,75.89
2023-04-18T02:16:27.956Z,76.91
2023-04-18T02:18:56.612Z,76.39
2023-04-18T02:21:25.094Z,76.35
2023-04-18T02:23:53.621Z,76.62
2023-04-18T02:26:23.475Z,76.18
2023-04-18T02:28:51.684Z,76.33
2023-04-18T02:31:19.792Z,76.57
2023-04-18T02:33:49.396Z,76.90
2023-04-18T02:36:17.800Z,77.23
2023-04-18T02:38:46.207Z,78.15
2023-04-18T02:41:17.557Z,79.89
2023-04-18T02:43:45.654Z,79.51
2023-04-18T02:46:16.365Z,80.00
2023-04-18T02:48:47.581Z,81.21
2023-04-18T02:51:20.066Z,80.80
2023-04-18T02:53:48.664Z,81.08
2023-04-18T02:56:18.236Z,81.38
2023-04-18T02:59:11.193Z,81.32
2023-04-18T03:01:57.588Z,81.37
2023-04-18T03:04:31.951Z,81.87
2023-04-18T03:07:04.278Z,81.52
2023-04-18T03:09:36.591Z,81.48
2023-04-18T03:12:11.172Z,81.28
2023-04-18T03:14:40.273Z,81.61
2023-04-18T03:17:08.849Z,81.24
2023-04-18T03:19:41.393Z,81.30
2023-04-18T03:22:17.082Z,80.83
2023-04-18T03:25:00.242Z,80.47
2023-04-18T03:27:59.376Z,81.07
2023-04-18T03:30:29.553Z,81.50
2023-04-18T03:33:02.807Z,81.38
2023-04-18T03:35:31.503Z,81.46
2023-04-18T03:38:01.079Z,82.12
2023-04-18T03:40:34.725Z,82.59
2023-04-18T03:43:09.313Z,82.47
2023-04-18T03:45:37.863Z,82.47
2023-04-18T03:48:07.423Z,82.50
2023-04-18T03:50:41.485Z,82.61
2023-04-18T03:53:12.982Z,81.91
2023-04-18T03:55:41.333Z,82.42
2023-04-18T03:58:10.568Z,82.23
2023-04-18T04:00:42.434Z,82.63
2023-04-18T04:03:13.547Z,83.05
2023-04-18T04:05:41.990Z,83.12
2023-04-18T04:08:10.202Z,82.77
2023-04-18T04:10:39.828Z,82.80
2023-04-18T04:13:08.291Z,82.83
2023-04-18T04:15:40.122Z,82.80
2023-04-18T04:18:11.207Z,82.76
2023-04-18T04:20:43.227Z,82.91
2023-04-18T04:23:15.479Z,83.13
2023-04-18T04:25:48.259Z,83.50
2023-04-18T04:28:31.208Z,83.55
2023-04-18T04:31:06.940Z,83.47
2023-04-18T04:33:36.246Z,83.41
2023-04-18T04:36:10.167Z,83.54
2023-04-18T04:38:40.904Z,84.12
2023-04-18T04:41:11.988Z,84.46
2023-04-18T04:43:41.566Z,85.35
2023-04-18T04:46:13.789Z,86.30
2023-04-18T04:48:44.122Z,87.12
2023-04-18T04:51:12.470Z,87.58
2023-04-18T04:53:40.763Z,88.11
2023-04-18T04:56:11.306Z,88.69
2023-04-18T04:58:40.598Z,89.07
2023-04-18T05:01:19.971Z,89.25
2023-04-18T05:03:48.613Z,89.46
2023-04-18T05:06:20.665Z,89.41
2023-04-18T05:08:49.116Z,89.63
2023-04-18T05:11:19.278Z,89.84
2023-04-18T05:13:47.445Z,89.99
2023-04-18T05:16:15.654Z,89.81
2023-04-18T05:18:44.015Z,89.82
2023-04-18T05:21:12.116Z,89.38
2023-04-18T05:23:41.311Z,88.32
2023-04-18T05:26:09.677Z,87.25
2023-04-18T05:28:39.201Z,87.19
2023-04-18T05:31:07.604Z,87.63
2023-04-18T05:33:35.762Z,87.84
2023-04-18T05:36:04.233Z,87.88
2023-04-18T05:38:32.396Z,85.87
2023-04-18T05:41:00.591Z,86.42
2023-04-18T05:43:28.767Z,85.43
2023-04-18T05:45:58.401Z,84.73
2023-04-18T05:48:26.584Z,85.84
2023-04-18T05:50:54.706Z,85.49
2023-04-18T05:53:22.879Z,85.83
2023-04-18T05:55:51.442Z,86.08
2023-04-18T05:58:19.708Z,86.71
2023-04-18T06:00:48.411Z,87.21
2023-04-18T06:03:18.154Z,87.59
2023-04-18T06:05:46.554Z,87.95
2023-04-18T06:08:15.038Z,88.32
2023-04-18T06:10:43.182Z,88.22
2023-04-18T06:13:11.519Z,87.86
2023-04-18T06:15:39.728Z,86.31
2023-04-18T06:18:08.164Z,86.05
2023-04-18T06:20:37.926Z,85.72
2023-04-18T06:23:06.068Z,83.66
2023-04-18T06:25:34.334Z,84.03
2023-04-18T06:28:02.429Z,84.40
2023-04-18T06:30:31.534Z,84.42
2023-04-18T06:32:59.854Z,84.20
2023-04-18T06:35:28.176Z,83.51
2023-04-18T06:37:58.318Z,83.47
2023-04-18T06:40:26.502Z,82.66
2023-04-18T06:42:54.754Z,82.46
2023-04-18T06:45:22.984Z,82.62
2023-04-18T06:47:51.560Z,83.04
2023-04-18T06:50:20.208Z,82.06
2023-04-18T06:52:48.421Z,82.26
2023-04-18T06:55:17.980Z,82.36
2023-04-18T06:57:46.203Z,80.30
2023-04-18T07:00:15.423Z,80.45
2023-04-18T07:02:43.737Z,79.02
2023-04-18T07:05:12.132Z,78.17
2023-04-18T07:07:40.611Z,77.50
2023-04-18T07:10:11.504Z,78.24
2023-04-18T07:12:41.233Z,78.01
2023-04-18T07:15:13.000Z,78.63
2023-04-18T07:17:41.332Z,75.75
2023-04-18T07:20:12.969Z,78.74
2023-04-18T07:22:42.854Z,77.33
2023-04-18T07:25:11.406Z,78.97
2023-04-18T07:27:40.861Z,78.32
2023-04-18T07:30:10.215Z,79.54
2023-04-18T07:32:38.452Z,78.17
2023-04-18T07:35:07.902Z,77.94
2023-04-18T07:37:36.095Z,76.48
2023-04-18T07:40:07.617Z,78.24
2023-04-18T07:42:36.144Z,78.40
2023-04-18T07:45:06.784Z,78.05
2023-04-18T07:47:35.011Z,77.81
2023-04-18T07:50:04.350Z,78.34
2023-04-18T07:52:32.591Z,78.21
2023-04-18T07:55:01.154Z,77.46
2023-04-18T07:57:29.376Z,77.30
2023-04-18T07:59:57.636Z,77.65
2023-04-18T08:02:27.293Z,76.88
2023-04-18T08:04:56.294Z,76.75
2023-04-18T08:07:24.696Z,76.25
2023-04-18T08:09:55.069Z,75.48
2023-04-18T08:12:23.257Z,76.15
2023-04-18T08:14:51.496Z,76.37
2023-04-18T08:17:19.834Z,77.04
2023-04-18T08:19:49.469Z,76.83
2023-04-18T08:22:17.824Z,76.55
2023-04-18T08:24:57.468Z,76.12
2023-04-18T08:27:31.843Z,75.18
2023-04-18T08:30:00.716Z,74.62
2023-04-18T08:32:29.182Z,75.78
2023-04-18T08:34:58.749Z,74.42
2023-04-18T08:37:28.100Z,74.97
2023-04-18T08:39:56.365Z,73.04
2023-04-18T08:42:24.947Z,71.39
2023-04-18T08:44:56.159Z,68.35
2023-04-18T08:47:24.350Z,69.79
2023-04-18T08:49:53.682Z,69.06
2023-04-18T08:52:24.532Z,69.80
2023-04-18T08:54:52.809Z,72.14
2023-04-18T08:57:26.985Z,69.26
2023-04-18T08:59:55.733Z,70.40
2023-04-18T09:02:39.132Z,72.08
2023-04-18T09:05:13.286Z,71.03
2023-04-18T09:07:43.579Z,69.19
2023-04-18T09:10:12.768Z,68.83
2023-04-18T09:12:50.589Z,67.00
2023-04-18T09:15:22.644Z,65.38
2023-04-18T09:17:53.524Z,67.17
2023-04-18T09:20:35.804Z,67.01
2023-04-18T09:23:06.442Z,68.02
2023-04-18T09:25:36.079Z,64.64
2023-04-18T09:28:06.076Z,65.45
2023-04-18T09:30:38.118Z,62.28
2023-04-18T09:33:09.683Z,62.72
2023-04-18T09:35:38.545Z,64.04
2023-04-18T09:38:09.431Z,67.39
2023-04-18T09:40:37.838Z,64.00
2023-04-18T09:43:20.499Z,64.70
2023-04-18T09:45:49.766Z,63.50
2023-04-18T09:48:21.955Z,64.90
2023-04-18T09:50:51.079Z,65.37
2023-04-18T09:53:21.448Z,65.86
2023-04-18T09:55:52.209Z,66.76
2023-04-18T09:58:22.920Z,63.58
2023-04-18T10:00:52.568Z,63.83
2023-04-18T10:03:21.111Z,63.55
2023-04-18T10:05:50.356Z,66.70
2023-04-18T10:08:20.156Z,61.30
2023-04-18T10:10:48.331Z,65.09
2023-04-18T10:13:18.557Z,63.17
2023-04-18T10:15:47.365Z,65.61
2023-04-18T10:18:17.427Z,64.01
2023-04-18T10:20:48.512Z,60.60
2023-04-18T10:23:37.909Z,61.87
2023-04-18T10:26:07.072Z,60.83
2023-04-18T10:29:01.036Z,59.35
2023-04-18T10:31:30.391Z,60.87
2023-04-18T10:36:30.460Z,62.66
2023-04-18T10:39:04.364Z,62.54
2023-04-18T10:41:33.407Z,58.69
2023-04-18T10:44:31.741Z,62.61
2023-04-18T10:47:25.574Z,61.02
2023-04-18T10:50:01.605Z,60.76
2023-04-18T10:52:30.649Z,59.04
2023-04-18T10:55:29.981Z,59.94
2023-04-18T10:58:00.563Z,61.40
2023-04-18T11:00:30.204Z,60.47
2023-04-18T11:03:00.361Z,57.36
2023-04-18T11:05:30.247Z,57.44
2023-04-18T11:07:58.540Z,59.06
2023-04-18T11:10:29.572Z,59.35
2023-04-18T11:13:04.493Z,59.03
2023-04-18T11:15:32.890Z,57.17
2023-04-18T11:18:02.973Z,58.01
2023-04-18T11:20:38.544Z,58.00
2023-04-18T11:23:16.211Z,57.85
2023-04-18T11:25:47.214Z,57.04
2023-04-18T11:28:20.919Z,61.14
2023-04-18T11:30:49.589Z,59.86
2023-04-18T11:33:18.047Z,58.60
2023-04-18T11:35:47.421Z,58.57
2023-04-18T11:38:17.148Z,57.21
2023-04-18T11:40:50.425Z,55.36
2023-04-18T11:43:22.665Z,55.38
2023-04-18T11:45:55.364Z,56.38
2023-04-18T11:48:23.792Z,54.18
2023-04-18T11:50:52.226Z,56.15
2023-04-18T11:53:33.779Z,58.34
2023-04-18T11:56:04.080Z,57.19
2023-04-18T11:58:33.195Z,57.94
2023-04-18T12:01:17.085Z,56.78
2023-04-18T12:03:45.837Z,61.37
2023-04-18T12:06:14.201Z,54.60
2023-04-18T12:08:44.516Z,58.35
2023-04-18T12:11:21.654Z,58.10
2023-04-18T12:13:50.198Z,55.28
2023-04-18T12:16:18.362Z,57.01
2023-04-18T12:18:47.382Z,54.52
2023-04-18T12:21:17.162Z,55.35
2023-04-18T12:23:45.998Z,56.65
2023-04-18T12:26:18.287Z,55.42
2023-04-18T12:28:48.205Z,55.41
2023-04-18T12:31:16.517Z,56.07
2023-04-18T12:33:44.740Z,54.10
2023-04-18T12:36:13.043Z,54.49
2023-04-18T12:38:43.242Z,52.83
2023-04-18T12:41:11.515Z,54.05
2023-04-18T12:43:41.031Z,52.74
2023-04-18T12:46:09.293Z,53.83
2023-04-18T12:48:37.646Z,54.20
2023-04-18T12:51:06.986Z,53.30
2023-04-18T12:53:35.178Z,53.92
2023-04-18T12:56:03.606Z,53.40
2023-04-18T12:58:31.767Z,56.02
2023-04-18T13:01:01.717Z,49.20
2023-04-18T13:03:30.253Z,51.22
2023-04-18T13:05:58.567Z,52.89
2023-04-18T13:08:26.726Z,51.19
2023-04-18T13:10:54.912Z,47.37
2023-04-18T13:13:23.170Z,54.23
2023-04-18T13:15:52.005Z,48.56
2023-04-18T13:18:21.804Z,53.16
2023-04-18T13:20:50.782Z,50.46
2023-04-18T13:23:19.042Z,49.45
2023-04-18T13:25:47.281Z,50.77
2023-04-18T13:28:15.437Z,50.50
2023-04-18T13:30:43.600Z,47.66
2023-04-18T13:33:11.794Z,50.33
2023-04-18T13:35:43.407Z,49.25
2023-04-18T13:38:12.166Z,45.65
2023-04-18T13:40:40.310Z,50.36
2023-04-18T13:43:10.057Z,50.27
2023-04-18T13:45:38.343Z,47.09
2023-04-18T13:48:06.980Z,44.47
2023-04-18T13:50:35.327Z,45.19
2023-04-18T13:53:05.035Z,46.07
2023-04-18T13:55:33.196Z,45.55
2023-04-18T13:58:01.471Z,48.93
2023-04-18T14:00:30.399Z,51.82
2023-04-18T14:02:58.638Z,49.11
2023-04-18T14:05:27.180Z,46.41
2023-04-18T14:08:01.974Z,48.99
2023-04-18T14:10:32.443Z,47.95
2023-04-18T14:13:00.734Z,50.81
2023-04-18T14:15:30.971Z,51.17
2023-04-18T14:17:59.453Z,48.17
2023-04-18T14:20:36.417Z,55.34
2023-04-18T14:23:04.783Z,55.91
2023-04-18T14:25:34.882Z,55.79
2023-04-18T14:28:09.943Z,55.17
2023-04-18T14:30:38.950Z,55.18
2023-04-18T14:33:11.378Z,54.00
2023-04-18T14:35:40.686Z,53.41
2023-04-18T14:38:09.195Z,53.41
2023-04-18T14:40:39.102Z,52.27
2023-04-18T14:43:07.381Z,51.46
2023-04-18T14:45:36.024Z,51.86
2023-04-18T14:48:04.344Z,52.53
2023-04-18T14:50:32.698Z,54.39
2023-04-18T14:53:01.228Z,56.00
2023-04-18T14:55:29.485Z,55.11
2023-04-18T14:57:59.368Z,54.66
2023-04-18T15:00:28.359Z,53.51
2023-04-18T15:02:56.795Z,54.11
2023-04-18T15:05:26.488Z,52.21
2023-04-18T15:07:56.222Z,49.99
2023-04-18T15:10:24.583Z,49.92
2023-04-18T15:12:52.802Z,49.06
2023-04-18T15:15:22.735Z,48.84
2023-04-18T15:17:51.306Z,48.98
2023-04-18T15:20:21.287Z,51.25
2023-04-18T15:22:51.020Z,52.85
2023-04-18T15:25:19.422Z,54.02
2023-04-18T15:27:47.825Z,55.62
2023-04-18T15:30:18.481Z,54.40
2023-04-18T15:32:48.818Z,56.49
2023-04-18T15:35:17.402Z,55.69
2023-04-18T15:37:45.846Z,56.64
2023-04-18T15:40:16.439Z,56.90
2023-04-18T15:42:44.925Z,56.87
2023-04-18T15:45:13.714Z,55.88
2023-04-18T15:47:42.715Z,55.47
2023-04-18T15:50:12.695Z,54.25
2023-04-18T15:52:41.915Z,53.16
2023-04-18T15:55:12.359Z,54.78
2023-04-18T15:57:41.888Z,47.77
2023-04-18T16:00:15.977Z,48.84
2023-04-18T16:02:44.919Z,50.60
2023-04-18T16:05:15.682Z,50.53
2023-04-18T16:07:44.639Z,51.67
2023-04-18T16:10:13.032Z,51.04
2023-04-18T16:12:41.912Z,50.85
2023-04-18T16:15:11.627Z,51.85
2023-04-18T16:17:40.563Z,52.39
2023-04-18T16:20:09.515Z,53.03
2023-04-18T16:22:39.256Z,53.85
2023-04-18T16:25:08.682Z,54.96
2023-04-18T16:27:37.062Z,56.39
2023-04-18T16:30:06.270Z,57.73
2023-04-18T16:32:35.767Z,58.42
2023-04-18T16:35:07.985Z,58.82
2023-04-18T16:37:36.333Z,58.78
2023-04-18T16:40:09.914Z,59.43
2023-04-18T16:42:38.440Z,60.29
2023-04-18T16:45:08.129Z,60.31
2023-04-18T16:47:37.120Z,60.51
2023-04-18T16:50:07.686Z,60.44
2023-04-18T16:52:38.339Z,60.76
2023-04-18T16:55:09.613Z,61.58
2023-04-18T16:57:39.668Z,62.06
2023-04-18T17:00:13.779Z,62.53
2023-04-18T17:02:45.672Z,62.80
2023-04-18T17:05:14.343Z,62.84
2023-04-18T17:07:42.929Z,62.24
2023-04-18T17:10:14.024Z,61.94
2023-04-18T17:12:44.071Z,62.36
2023-04-18T17:15:12.901Z,63.04
2023-04-18T17:17:43.406Z,63.36
2023-04-18T17:20:12.747Z,63.22
2023-04-18T17:22:43.312Z,63.86
2023-04-18T17:25:14.637Z,63.49
2023-04-18T17:27:43.120Z,63.82
2023-04-18T17:30:12.721Z,65.11
2023-04-18T17:32:46.300Z,63.01
2023-04-18T17:35:16.303Z,63.61
2023-04-18T17:37:45.369Z,64.74
2023-04-18T17:40:18.817Z,65.92
2023-04-18T17:42:47.957Z,66.10
2023-04-18T17:45:17.390Z,66.78
2023-04-18T17:47:46.527Z,66.59
2023-04-18T17:50:15.341Z,66.52
2023-04-18T17:52:45.310Z,66.13
2023-04-18T17:55:17.667Z,66.96
2023-04-18T17:57:48.738Z,67.52
2023-04-18T18:00:19.034Z,66.95
2023-04-18T18:02:48.602Z,66.81
2023-04-18T18:05:18.897Z,67.51
2023-04-18T18:07:50.951Z,67.65
2023-04-18T18:10:23.992Z,67.38
2023-04-18T18:12:53.940Z,68.63
2023-04-18T18:15:26.197Z,71.05
2023-04-18T18:17:55.862Z,71.57
2023-04-18T18:20:25.263Z,71.00
2023-04-18T18:22:54.999Z,70.99
2023-04-18T18:25:25.895Z,71.16
2023-04-18T18:27:59.280Z,72.11
2023-04-18T18:30:28.793Z,70.53
2023-04-18T18:33:02.628Z,71.52
2023-04-18T18:35:31.899Z,72.27
2023-04-18T18:38:01.208Z,70.76
2023-04-18T18:40:33.061Z,67.88
2023-04-18T18:43:02.802Z,65.62
2023-04-18T18:45:32.240Z,66.54
2023-04-18T18:48:01.012Z,66.98
2023-04-18T18:50:29.501Z,66.36
2023-04-18T18:52:58.938Z,65.80
2023-04-18T18:55:29.438Z,66.11
2023-04-18T18:58:01.178Z,65.66
2023-04-18T19:00:36.037Z,65.71
2023-04-18T19:03:05.638Z,65.52
2023-04-18T19:05:40.599Z,65.98
2023-04-18T19:08:11.037Z,65.94
2023-04-18T19:10:44.040Z,66.63
2023-04-18T19:13:15.771Z,66.90
2023-04-18T19:15:45.241Z,66.97
2023-04-18T19:18:15.832Z,66.47
2023-04-18T19:20:49.599Z,66.74
2023-04-18T19:23:19.494Z,66.54
2023-04-18T19:25:48.753Z,66.06
2023-04-18T19:28:21.096Z,66.15
2023-04-18T19:30:50.142Z,70.10
2023-04-18T19:33:20.547Z,72.41
2023-04-18T19:35:50.293Z,72.73
2023-04-18T19:38:19.168Z,72.05
2023-04-18T19:40:51.743Z,71.04
2023-04-18T19:43:26.470Z,70.24
2023-04-18T19:45:58.321Z,70.93
2023-04-18T19:48:32.048Z,71.53
2023-04-18T19:51:04.886Z,72.91
2023-04-18T19:53:35.023Z,74.16
2023-04-18T19:56:05.185Z,75.55
2023-04-18T19:58:40.924Z,76.69
2023-04-18T20:01:10.861Z,75.65
2023-04-18T20:03:40.548Z,77.49
2023-04-18T20:06:10.148Z,75.69
2023-04-18T20:08:43.963Z,70.57
2023-04-18T20:11:15.427Z,69.09
2023-04-18T20:13:45.945Z,68.04
2023-04-18T20:16:17.529Z,68.41
2023-04-18T20:18:47.759Z,69.23
2023-04-18T20:21:17.447Z,68.89
2023-04-18T20:23:46.567Z,67.37
2023-04-18T20:26:16.032Z,65.36
2023-04-18T20:28:48.212Z,66.91
2023-04-18T20:31:20.129Z,69.27
2023-04-18T20:33:50.356Z,68.79
2023-04-18T20:36:19.390Z,66.41
2023-04-18T20:38:50.745Z,63.81
2023-04-18T20:41:20.908Z,63.48
2023-04-18T20:43:54.087Z,62.69
2023-04-18T20:46:22.461Z,61.75
2023-04-18T20:48:50.609Z,61.30
2023-04-18T20:51:18.903Z,60.58
2023-04-18T20:53:47.582Z,61.14
2023-04-18T20:56:15.968Z,61.21
2023-04-18T20:58:45.256Z,60.98
2023-04-18T21:01:15.191Z,60.89
2023-04-18T21:03:44.395Z,60.26
2023-04-18T21:06:12.864Z,60.51
2023-04-18T21:08:41.151Z,60.37
2023-04-18T21:11:09.730Z,60.45
2023-04-18T21:13:39.125Z,60.43
2023-04-18T21:16:10.306Z,60.82
2023-04-18T21:18:40.062Z,61.41
2023-04-18T21:21:09.030Z,60.51
2023-04-18T21:23:43.281Z,61.07
2023-04-18T21:26:13.642Z,59.97
2023-04-18T21:28:58.636Z,59.71
2023-04-18T21:31:28.009Z,58.46
2023-04-18T21:33:59.116Z,58.48
2023-04-18T21:36:28.956Z,58.09
2023-04-18T21:38:58.556Z,57.14
2023-04-18T21:41:27.215Z,57.99
2023-04-18T21:43:57.647Z,56.46
2023-04-18T21:46:26.572Z,57.00
2023-04-18T21:48:55.018Z,57.17
2023-04-18T21:51:24.642Z,57.43
2023-04-18T21:53:53.838Z,57.20
2023-04-18T21:56:22.143Z,57.36
2023-04-18T21:58:50.737Z,56.63
2023-04-18T22:01:18.905Z,57.05
2023-04-18T22:03:47.300Z,56.60
2023-04-18T22:06:15.575Z,56.32
2023-04-18T22:08:45.125Z,56.50
2023-04-18T22:11:13.780Z,56.10
2023-04-18T22:13:45.058Z,55.96
2023-04-18T22:16:13.727Z,55.81
2023-04-18T22:18:41.988Z,55.68
2023-04-18T22:21:10.677Z,55.36
2023-04-18T22:23:58.937Z,55.26
2023-04-18T22:26:33.104Z,55.66
2023-04-18T22:29:01.335Z,55.78
2023-04-18T22:31:29.764Z,55.91
2023-04-18T22:33:57.940Z,56.28
2023-04-18T22:36:27.725Z,56.01
2023-04-18T22:38:55.944Z,55.47
2023-04-18T22:41:25.971Z,56.29
2023-04-18T22:43:54.209Z,56.64
2023-04-18T22:46:22.886Z,56.40
2023-04-18T22:48:51.135Z,56.61
2023-04-18T22:51:20.385Z,56.31
2023-04-18T22:53:48.513Z,55.80
2023-04-18T22:56:17.559Z,55.37
2023-04-18T22:58:47.172Z,54.97
2023-04-18T23:01:15.494Z,54.96
2023-04-18T23:03:44.028Z,54.35
2023-04-18T23:06:12.865Z,53.83
2023-04-18T23:08:41.126Z,53.91
2023-04-18T23:11:10.824Z,54.39
2023-04-18T23:13:39.053Z,53.37
2023-04-18T23:16:09.653Z,53.46
2023-04-18T23:18:37.942Z,53.72
2023-04-18T23:21:06.090Z,53.43
2023-04-18T23:23:34.497Z,53.79
2023-04-18T23:26:03.015Z,53.28
2023-04-18T23:28:31.266Z,53.41
2023-04-18T23:30:59.417Z,53.68
2023-04-18T23:33:29.174Z,52.96
2023-04-18T23:35:57.382Z,53.19
2023-04-18T23:38:25.657Z,53.32
2023-04-18T23:40:54.079Z,53.57
2023-04-18T23:43:22.303Z,54.59
2023-04-18T23:45:52.536Z,55.23
2023-04-18T23:48:20.794Z,55.80
2023-04-18T23:50:52.546Z,56.27
2023-04-18T23:53:21.180Z,56.34
2023-04-18T23:55:51.076Z,56.72
2023-04-18T23:58:19.460Z,56.44
